sensor_id;sensor_type;location;lat;lon;timestamp;P1;durP1;ratioP1;P2;durP2;ratioP2
71290;SDS011;59073;51.994;4.448;2024-02-26T00:00:38;3.49;;;3.49;;
71290;SDS011;59073;51.994;4.448;2024-02-26T00:03:04;3.85;;;3.85;;
71290;SDS011;59073;51.994;4.448;2024-02-26T00:05:29;3.80;;;3.80;;
71290;SDS011;59073;51.994;4.448;2024-02-26T00:07:56;3.88;;;3.88;;
71290;SDS011;59073;51.994;4.448;2024-02-26T00:10:22;3.98;;;3.98;;
71290;SDS011;59073;51.994;4.448;2024-02-26T00:12:47;4.04;;;4.04;;
71290;SDS011;59073;51.994;4.448;2024-02-26T00:15:13;3.57;;;3.57;;
71290;SDS011;59073;51.994;4.448;2024-02-26T00:17:39;3.87;;;3.87;;
71290;SDS011;59073;51.994;4.448;2024-02-26T00:20:05;3.52;;;3.52;;
71290;SDS011;59073;51.994;4.448;2024-02-26T00:22:34;3.81;;;3.81;;
71290;SDS011;59073;51.994;4.448;2024-02-26T00:25:00;3.52;;;3.52;;
71290;SDS011;59073;51.994;4.448;2024-02-26T00:27:26;3.62;;;3.62;;
71290;SDS011;59073;51.994;4.448;2024-02-26T00:29:51;3.73;;;3.73;;
71290;SDS011;59073;51.994;4.448;2024-02-26T00:32:16;3.63;;;3.63;;
71290;SDS011;59073;51.994;4.448;2024-02-26T00:34:42;3.54;;;3.54;;
71290;SDS011;59073;51.994;4.448;2024-02-26T00:37:07;3.39;;;3.39;;
71290;SDS011;59073;51.994;4.448;2024-02-26T00:39:33;3.52;;;3.52;;
71290;SDS011;59073;51.994;4.448;2024-02-26T00:41:58;3.35;;;3.35;;
71290;SDS011;59073;51.994;4.448;2024-02-26T00:44:24;3.15;;;3.15;;
71290;SDS011;59073;51.994;4.448;2024-02-26T00:46:49;3.59;;;3.59;;
71290;SDS011;59073;51.994;4.448;2024-02-26T00:49:15;3.77;;;3.77;;
71290;SDS011;59073;51.994;4.448;2024-02-26T00:51:41;3.74;;;3.74;;
71290;SDS011;59073;51.994;4.448;2024-02-26T00:54:07;3.08;;;3.08;;
71290;SDS011;59073;51.994;4.448;2024-02-26T00:56:32;3.45;;;3.45;;
71290;SDS011;59073;51.994;4.448;2024-02-26T00:58:58;3.56;;;3.56;;
71290;SDS011;59073;51.994;4.448;2024-02-26T01:01:23;3.70;;;3.70;;
71290;SDS011;59073;51.994;4.448;2024-02-26T01:03:49;3.64;;;3.61;;
71290;SDS011;59073;51.994;4.448;2024-02-26T01:06:14;3.73;;;3.72;;
71290;SDS011;59073;51.994;4.448;2024-02-26T01:08:40;3.85;;;3.83;;
71290;SDS011;59073;51.994;4.448;2024-02-26T01:11:05;3.35;;;3.35;;
71290;SDS011;59073;51.994;4.448;2024-02-26T01:13:31;3.46;;;3.46;;
71290;SDS011;59073;51.994;4.448;2024-02-26T01:15:57;3.71;;;3.71;;
71290;SDS011;59073;51.994;4.448;2024-02-26T01:18:22;3.58;;;3.58;;
71290;SDS011;59073;51.994;4.448;2024-02-26T01:20:48;3.70;;;3.69;;
71290;SDS011;59073;51.994;4.448;2024-02-26T01:23:13;3.68;;;3.68;;
71290;SDS011;59073;51.994;4.448;2024-02-26T01:25:39;3.67;;;3.67;;
71290;SDS011;59073;51.994;4.448;2024-02-26T01:28:05;3.84;;;3.84;;
71290;SDS011;59073;51.994;4.448;2024-02-26T01:30:31;3.89;;;3.89;;
71290;SDS011;59073;51.994;4.448;2024-02-26T01:32:56;3.72;;;3.72;;
71290;SDS011;59073;51.994;4.448;2024-02-26T01:35:22;3.76;;;3.76;;
71290;SDS011;59073;51.994;4.448;2024-02-26T01:37:47;3.72;;;3.72;;
71290;SDS011;59073;51.994;4.448;2024-02-26T01:40:13;3.93;;;3.93;;
71290;SDS011;59073;51.994;4.448;2024-02-26T01:42:43;4.13;;;4.13;;
71290;SDS011;59073;51.994;4.448;2024-02-26T01:45:12;4.22;;;4.22;;
71290;SDS011;59073;51.994;4.448;2024-02-26T01:47:46;4.18;;;4.18;;
71290;SDS011;59073;51.994;4.448;2024-02-26T01:50:11;4.39;;;4.39;;
71290;SDS011;59073;51.994;4.448;2024-02-26T01:52:37;3.89;;;3.89;;
71290;SDS011;59073;51.994;4.448;2024-02-26T01:55:03;3.91;;;3.91;;
71290;SDS011;59073;51.994;4.448;2024-02-26T01:57:28;4.12;;;4.12;;
71290;SDS011;59073;51.994;4.448;2024-02-26T01:59:54;3.97;;;3.97;;
71290;SDS011;59073;51.994;4.448;2024-02-26T02:02:21;4.10;;;4.10;;
71290;SDS011;59073;51.994;4.448;2024-02-26T02:04:46;4.15;;;4.15;;
71290;SDS011;59073;51.994;4.448;2024-02-26T02:07:12;4.28;;;4.28;;
71290;SDS011;59073;51.994;4.448;2024-02-26T02:09:38;4.51;;;4.51;;
71290;SDS011;59073;51.994;4.448;2024-02-26T02:12:03;4.38;;;4.38;;
71290;SDS011;59073;51.994;4.448;2024-02-26T02:14:30;4.49;;;4.49;;
71290;SDS011;59073;51.994;4.448;2024-02-26T02:16:56;4.98;;;4.98;;
71290;SDS011;59073;51.994;4.448;2024-02-26T02:19:21;4.48;;;4.48;;
71290;SDS011;59073;51.994;4.448;2024-02-26T02:21:47;4.60;;;4.60;;
71290;SDS011;59073;51.994;4.448;2024-02-26T02:24:12;4.41;;;4.41;;
71290;SDS011;59073;51.994;4.448;2024-02-26T02:26:38;4.85;;;4.85;;
71290;SDS011;59073;51.994;4.448;2024-02-26T02:29:03;4.84;;;4.84;;
71290;SDS011;59073;51.994;4.448;2024-02-26T02:31:31;4.96;;;4.96;;
71290;SDS011;59073;51.994;4.448;2024-02-26T02:33:56;4.69;;;4.69;;
71290;SDS011;59073;51.994;4.448;2024-02-26T02:36:22;4.91;;;4.91;;
71290;SDS011;59073;51.994;4.448;2024-02-26T02:38:50;4.70;;;4.70;;
71290;SDS011;59073;51.994;4.448;2024-02-26T02:41:17;5.13;;;5.13;;
71290;SDS011;59073;51.994;4.448;2024-02-26T02:43:43;5.12;;;5.12;;
71290;SDS011;59073;51.994;4.448;2024-02-26T02:46:08;5.16;;;5.16;;
71290;SDS011;59073;51.994;4.448;2024-02-26T02:48:36;5.60;;;5.60;;
71290;SDS011;59073;51.994;4.448;2024-02-26T02:51:01;5.44;;;5.44;;
71290;SDS011;59073;51.994;4.448;2024-02-26T02:53:27;5.64;;;5.64;;
71290;SDS011;59073;51.994;4.448;2024-02-26T02:55:52;5.31;;;5.31;;
71290;SDS011;59073;51.994;4.448;2024-02-26T02:58:18;5.78;;;5.78;;
71290;SDS011;59073;51.994;4.448;2024-02-26T03:00:43;5.95;;;5.94;;
71290;SDS011;59073;51.994;4.448;2024-02-26T03:03:09;5.70;;;5.70;;
71290;SDS011;59073;51.994;4.448;2024-02-26T03:05:34;5.53;;;5.53;;
71290;SDS011;59073;51.994;4.448;2024-02-26T03:08:00;5.35;;;5.34;;
71290;SDS011;59073;51.994;4.448;2024-02-26T03:10:25;5.15;;;5.14;;
71290;SDS011;59073;51.994;4.448;2024-02-26T03:12:51;5.33;;;5.33;;
71290;SDS011;59073;51.994;4.448;2024-02-26T03:15:16;5.18;;;5.18;;
71290;SDS011;59073;51.994;4.448;2024-02-26T03:17:42;5.26;;;5.25;;
71290;SDS011;59073;51.994;4.448;2024-02-26T03:20:08;5.18;;;5.18;;
71290;SDS011;59073;51.994;4.448;2024-02-26T03:22:34;5.38;;;5.38;;
71290;SDS011;59073;51.994;4.448;2024-02-26T03:25:00;5.50;;;5.50;;
71290;SDS011;59073;51.994;4.448;2024-02-26T03:27:26;5.65;;;5.65;;
71290;SDS011;59073;51.994;4.448;2024-02-26T03:29:52;5.67;;;5.67;;
71290;SDS011;59073;51.994;4.448;2024-02-26T03:32:18;5.33;;;5.33;;
71290;SDS011;59073;51.994;4.448;2024-02-26T03:34:43;5.36;;;5.36;;
71290;SDS011;59073;51.994;4.448;2024-02-26T03:37:09;5.12;;;5.09;;
71290;SDS011;59073;51.994;4.448;2024-02-26T03:39:36;5.54;;;5.53;;
71290;SDS011;59073;51.994;4.448;2024-02-26T03:42:02;5.49;;;5.49;;
71290;SDS011;59073;51.994;4.448;2024-02-26T03:44:28;5.33;;;5.33;;
71290;SDS011;59073;51.994;4.448;2024-02-26T03:46:53;5.22;;;5.22;;
71290;SDS011;59073;51.994;4.448;2024-02-26T03:49:19;5.53;;;5.53;;
71290;SDS011;59073;51.994;4.448;2024-02-26T03:51:44;5.76;;;5.76;;
71290;SDS011;59073;51.994;4.448;2024-02-26T03:54:10;5.71;;;5.71;;
71290;SDS011;59073;51.994;4.448;2024-02-26T03:56:35;5.90;;;5.90;;
71290;SDS011;59073;51.994;4.448;2024-02-26T03:59:01;5.89;;;5.89;;
71290;SDS011;59073;51.994;4.448;2024-02-26T04:01:27;6.14;;;6.14;;
71290;SDS011;59073;51.994;4.448;2024-02-26T04:03:53;5.68;;;5.68;;
71290;SDS011;59073;51.994;4.448;2024-02-26T04:06:19;5.63;;;5.61;;
71290;SDS011;59073;51.994;4.448;2024-02-26T04:08:46;5.82;;;5.82;;
71290;SDS011;59073;51.994;4.448;2024-02-26T04:11:12;5.85;;;5.80;;
71290;SDS011;59073;51.994;4.448;2024-02-26T04:13:38;6.30;;;6.30;;
71290;SDS011;59073;51.994;4.448;2024-02-26T04:16:04;5.98;;;5.97;;
71290;SDS011;59073;51.994;4.448;2024-02-26T04:18:31;6.74;;;6.74;;
71290;SDS011;59073;51.994;4.448;2024-02-26T04:20:57;7.17;;;7.11;;
71290;SDS011;59073;51.994;4.448;2024-02-26T04:23:22;7.40;;;7.37;;
71290;SDS011;59073;51.994;4.448;2024-02-26T04:25:48;6.88;;;6.86;;
71290;SDS011;59073;51.994;4.448;2024-02-26T04:28:14;7.13;;;7.11;;
71290;SDS011;59073;51.994;4.448;2024-02-26T04:30:40;7.67;;;7.65;;
71290;SDS011;59073;51.994;4.448;2024-02-26T04:33:06;8.12;;;8.06;;
71290;SDS011;59073;51.994;4.448;2024-02-26T04:35:31;8.06;;;7.94;;
71290;SDS011;59073;51.994;4.448;2024-02-26T04:37:57;8.28;;;8.15;;
71290;SDS011;59073;51.994;4.448;2024-02-26T04:40:23;8.61;;;8.46;;
71290;SDS011;59073;51.994;4.448;2024-02-26T04:42:49;8.92;;;8.83;;
71290;SDS011;59073;51.994;4.448;2024-02-26T04:45:14;8.42;;;8.34;;
71290;SDS011;59073;51.994;4.448;2024-02-26T04:47:40;7.94;;;7.86;;
71290;SDS011;59073;51.994;4.448;2024-02-26T04:50:06;8.44;;;8.39;;
71290;SDS011;59073;51.994;4.448;2024-02-26T04:52:32;8.48;;;8.38;;
71290;SDS011;59073;51.994;4.448;2024-02-26T04:54:57;8.32;;;8.26;;
71290;SDS011;59073;51.994;4.448;2024-02-26T04:57:25;8.45;;;8.31;;
71290;SDS011;59073;51.994;4.448;2024-02-26T04:59:51;8.62;;;8.47;;
71290;SDS011;59073;51.994;4.448;2024-02-26T05:02:17;8.65;;;8.51;;
71290;SDS011;59073;51.994;4.448;2024-02-26T05:04:43;8.33;;;8.22;;
71290;SDS011;59073;51.994;4.448;2024-02-26T05:07:08;8.79;;;8.58;;
71290;SDS011;59073;51.994;4.448;2024-02-26T05:09:34;8.00;;;7.82;;
71290;SDS011;59073;51.994;4.448;2024-02-26T05:12:00;7.63;;;7.55;;
71290;SDS011;59073;51.994;4.448;2024-02-26T05:14:26;7.81;;;7.72;;
71290;SDS011;59073;51.994;4.448;2024-02-26T05:16:52;7.95;;;7.86;;
71290;SDS011;59073;51.994;4.448;2024-02-26T05:19:17;8.16;;;8.03;;
71290;SDS011;59073;51.994;4.448;2024-02-26T05:21:43;7.92;;;7.86;;
71290;SDS011;59073;51.994;4.448;2024-02-26T05:24:09;8.16;;;8.13;;
71290;SDS011;59073;51.994;4.448;2024-02-26T05:26:35;8.10;;;7.99;;
71290;SDS011;59073;51.994;4.448;2024-02-26T05:29:01;8.32;;;8.19;;
71290;SDS011;59073;51.994;4.448;2024-02-26T05:31:27;8.16;;;8.11;;
71290;SDS011;59073;51.994;4.448;2024-02-26T05:33:53;8.29;;;8.20;;
71290;SDS011;59073;51.994;4.448;2024-02-26T05:36:20;8.31;;;8.28;;
71290;SDS011;59073;51.994;4.448;2024-02-26T05:38:47;8.08;;;8.01;;
71290;SDS011;59073;51.994;4.448;2024-02-26T05:41:16;8.62;;;8.56;;
71290;SDS011;59073;51.994;4.448;2024-02-26T05:43:48;8.47;;;8.32;;
71290;SDS011;59073;51.994;4.448;2024-02-26T05:46:16;8.17;;;8.01;;
71290;SDS011;59073;51.994;4.448;2024-02-26T05:48:42;8.66;;;8.57;;
71290;SDS011;59073;51.994;4.448;2024-02-26T05:51:07;8.70;;;8.60;;
71290;SDS011;59073;51.994;4.448;2024-02-26T05:53:33;8.95;;;8.77;;
71290;SDS011;59073;51.994;4.448;2024-02-26T05:55:59;8.71;;;8.59;;
71290;SDS011;59073;51.994;4.448;2024-02-26T05:58:24;8.32;;;8.22;;
71290;SDS011;59073;51.994;4.448;2024-02-26T06:00:50;8.69;;;8.59;;
71290;SDS011;59073;51.994;4.448;2024-02-26T06:03:15;8.59;;;8.54;;
71290;SDS011;59073;51.994;4.448;2024-02-26T06:05:41;8.95;;;8.82;;
71290;SDS011;59073;51.994;4.448;2024-02-26T06:08:11;8.84;;;8.72;;
71290;SDS011;59073;51.994;4.448;2024-02-26T06:10:36;8.82;;;8.69;;
71290;SDS011;59073;51.994;4.448;2024-02-26T06:13:01;9.02;;;8.83;;
71290;SDS011;59073;51.994;4.448;2024-02-26T06:15:27;9.02;;;8.77;;
71290;SDS011;59073;51.994;4.448;2024-02-26T06:17:52;9.21;;;9.02;;
71290;SDS011;59073;51.994;4.448;2024-02-26T06:20:18;9.53;;;9.40;;
71290;SDS011;59073;51.994;4.448;2024-02-26T06:22:43;8.87;;;8.80;;
71290;SDS011;59073;51.994;4.448;2024-02-26T06:25:10;9.91;;;9.76;;
71290;SDS011;59073;51.994;4.448;2024-02-26T06:27:35;10.11;;;9.74;;
71290;SDS011;59073;51.994;4.448;2024-02-26T06:30:01;10.60;;;10.10;;
71290;SDS011;59073;51.994;4.448;2024-02-26T06:32:26;10.57;;;10.33;;
71290;SDS011;59073;51.994;4.448;2024-02-26T06:34:53;10.40;;;10.28;;
71290;SDS011;59073;51.994;4.448;2024-02-26T06:37:19;11.41;;;11.19;;
71290;SDS011;59073;51.994;4.448;2024-02-26T06:39:44;10.88;;;10.66;;
71290;SDS011;59073;51.994;4.448;2024-02-26T06:42:13;11.67;;;11.51;;
71290;SDS011;59073;51.994;4.448;2024-02-26T06:44:38;11.37;;;11.21;;
71290;SDS011;59073;51.994;4.448;2024-02-26T06:47:04;10.86;;;10.78;;
71290;SDS011;59073;51.994;4.448;2024-02-26T06:49:29;11.32;;;11.11;;
71290;SDS011;59073;51.994;4.448;2024-02-26T06:51:55;11.55;;;11.29;;
71290;SDS011;59073;51.994;4.448;2024-02-26T06:54:20;13.41;;;13.21;;
71290;SDS011;59073;51.994;4.448;2024-02-26T06:56:46;12.43;;;12.29;;
71290;SDS011;59073;51.994;4.448;2024-02-26T06:59:12;11.87;;;11.74;;
71290;SDS011;59073;51.994;4.448;2024-02-26T07:01:40;12.74;;;12.56;;
71290;SDS011;59073;51.994;4.448;2024-02-26T07:04:06;12.60;;;12.46;;
71290;SDS011;59073;51.994;4.448;2024-02-26T07:06:32;13.43;;;13.15;;
71290;SDS011;59073;51.994;4.448;2024-02-26T07:08:57;13.36;;;13.15;;
71290;SDS011;59073;51.994;4.448;2024-02-26T07:11:23;13.11;;;12.88;;
71290;SDS011;59073;51.994;4.448;2024-02-26T07:13:48;13.68;;;13.39;;
71290;SDS011;59073;51.994;4.448;2024-02-26T07:16:15;13.32;;;13.09;;
71290;SDS011;59073;51.994;4.448;2024-02-26T07:18:41;13.31;;;13.10;;
71290;SDS011;59073;51.994;4.448;2024-02-26T07:21:08;14.06;;;13.84;;
71290;SDS011;59073;51.994;4.448;2024-02-26T07:23:34;13.76;;;13.54;;
71290;SDS011;59073;51.994;4.448;2024-02-26T07:25:59;13.45;;;13.15;;
71290;SDS011;59073;51.994;4.448;2024-02-26T07:28:25;13.85;;;13.64;;
71290;SDS011;59073;51.994;4.448;2024-02-26T07:30:50;14.14;;;14.03;;
71290;SDS011;59073;51.994;4.448;2024-02-26T07:33:16;13.97;;;13.77;;
71290;SDS011;59073;51.994;4.448;2024-02-26T07:35:41;14.28;;;14.10;;
71290;SDS011;59073;51.994;4.448;2024-02-26T07:38:07;13.31;;;13.13;;
71290;SDS011;59073;51.994;4.448;2024-02-26T07:40:32;13.79;;;13.60;;
71290;SDS011;59073;51.994;4.448;2024-02-26T07:42:58;13.71;;;13.68;;
71290;SDS011;59073;51.994;4.448;2024-02-26T07:45:23;13.75;;;13.61;;
71290;SDS011;59073;51.994;4.448;2024-02-26T07:47:49;12.41;;;12.32;;
71290;SDS011;59073;51.994;4.448;2024-02-26T07:50:16;13.39;;;13.26;;
71290;SDS011;59073;51.994;4.448;2024-02-26T07:52:42;12.44;;;12.17;;
71290;SDS011;59073;51.994;4.448;2024-02-26T07:55:07;12.44;;;12.16;;
71290;SDS011;59073;51.994;4.448;2024-02-26T07:57:33;12.75;;;12.62;;
71290;SDS011;59073;51.994;4.448;2024-02-26T07:59:59;12.51;;;12.33;;
71290;SDS011;59073;51.994;4.448;2024-02-26T08:02:25;12.09;;;11.94;;
71290;SDS011;59073;51.994;4.448;2024-02-26T08:04:50;11.52;;;11.43;;
71290;SDS011;59073;51.994;4.448;2024-02-26T08:07:16;11.39;;;11.25;;
71290;SDS011;59073;51.994;4.448;2024-02-26T08:09:42;10.90;;;10.83;;
71290;SDS011;59073;51.994;4.448;2024-02-26T08:12:07;10.86;;;10.71;;
71290;SDS011;59073;51.994;4.448;2024-02-26T08:14:33;10.69;;;10.69;;
71290;SDS011;59073;51.994;4.448;2024-02-26T08:16:58;10.59;;;10.49;;
71290;SDS011;59073;51.994;4.448;2024-02-26T08:19:24;10.00;;;9.86;;
71290;SDS011;59073;51.994;4.448;2024-02-26T08:21:50;9.58;;;9.51;;
71290;SDS011;59073;51.994;4.448;2024-02-26T08:24:15;9.53;;;9.36;;
71290;SDS011;59073;51.994;4.448;2024-02-26T08:26:41;9.21;;;9.19;;
71290;SDS011;59073;51.994;4.448;2024-02-26T08:29:06;8.75;;;8.70;;
71290;SDS011;59073;51.994;4.448;2024-02-26T08:31:31;8.39;;;8.38;;
71290;SDS011;59073;51.994;4.448;2024-02-26T08:33:57;8.33;;;8.30;;
71290;SDS011;59073;51.994;4.448;2024-02-26T08:36:24;7.73;;;7.72;;
71290;SDS011;59073;51.994;4.448;2024-02-26T08:38:49;7.49;;;7.47;;
71290;SDS011;59073;51.994;4.448;2024-02-26T08:41:15;7.13;;;7.10;;
71290;SDS011;59073;51.994;4.448;2024-02-26T08:43:40;6.92;;;6.88;;
71290;SDS011;59073;51.994;4.448;2024-02-26T08:46:08;6.65;;;6.56;;
71290;SDS011;59073;51.994;4.448;2024-02-26T08:48:35;6.42;;;6.41;;
71290;SDS011;59073;51.994;4.448;2024-02-26T08:51:04;6.20;;;6.20;;
71290;SDS011;59073;51.994;4.448;2024-02-26T08:53:32;6.51;;;6.44;;
71290;SDS011;59073;51.994;4.448;2024-02-26T08:55:58;6.14;;;6.08;;
71290;SDS011;59073;51.994;4.448;2024-02-26T08:58:23;6.16;;;6.16;;
71290;SDS011;59073;51.994;4.448;2024-02-26T09:00:49;5.78;;;5.78;;
71290;SDS011;59073;51.994;4.448;2024-02-26T09:03:14;5.63;;;5.63;;
71290;SDS011;59073;51.994;4.448;2024-02-26T09:05:39;5.92;;;5.90;;
71290;SDS011;59073;51.994;4.448;2024-02-26T09:08:05;5.59;;;5.54;;
71290;SDS011;59073;51.994;4.448;2024-02-26T09:10:31;5.31;;;5.31;;
71290;SDS011;59073;51.994;4.448;2024-02-26T09:12:58;5.38;;;5.38;;
71290;SDS011;59073;51.994;4.448;2024-02-26T09:15:23;5.21;;;5.21;;
71290;SDS011;59073;51.994;4.448;2024-02-26T09:17:49;5.39;;;5.39;;
71290;SDS011;59073;51.994;4.448;2024-02-26T09:20:15;5.11;;;5.06;;
71290;SDS011;59073;51.994;4.448;2024-02-26T09:22:45;4.93;;;4.88;;
71290;SDS011;59073;51.994;4.448;2024-02-26T09:25:11;5.31;;;5.29;;
71290;SDS011;59073;51.994;4.448;2024-02-26T09:27:37;5.03;;;5.03;;
71290;SDS011;59073;51.994;4.448;2024-02-26T09:30:02;4.91;;;4.91;;
71290;SDS011;59073;51.994;4.448;2024-02-26T09:32:28;4.83;;;4.83;;
71290;SDS011;59073;51.994;4.448;2024-02-26T09:34:55;5.46;;;5.37;;
71290;SDS011;59073;51.994;4.448;2024-02-26T09:37:25;5.01;;;4.89;;
71290;SDS011;59073;51.994;4.448;2024-02-26T09:39:51;5.10;;;5.02;;
71290;SDS011;59073;51.994;4.448;2024-02-26T09:42:19;4.52;;;4.52;;
71290;SDS011;59073;51.994;4.448;2024-02-26T09:44:45;4.85;;;4.85;;
71290;SDS011;59073;51.994;4.448;2024-02-26T09:47:11;5.02;;;4.99;;
71290;SDS011;59073;51.994;4.448;2024-02-26T09:49:40;4.79;;;4.78;;
71290;SDS011;59073;51.994;4.448;2024-02-26T09:52:07;4.58;;;4.54;;
71290;SDS011;59073;51.994;4.448;2024-02-26T09:54:34;4.96;;;4.92;;
71290;SDS011;59073;51.994;4.448;2024-02-26T09:57:02;4.85;;;4.79;;
71290;SDS011;59073;51.994;4.448;2024-02-26T09:59:36;4.79;;;4.75;;
71290;SDS011;59073;51.994;4.448;2024-02-26T10:02:06;5.00;;;4.95;;
71290;SDS011;59073;51.994;4.448;2024-02-26T10:04:36;5.09;;;5.09;;
71290;SDS011;59073;51.994;4.448;2024-02-26T10:07:04;4.77;;;4.77;;
71290;SDS011;59073;51.994;4.448;2024-02-26T10:09:34;4.59;;;4.59;;
71290;SDS011;59073;51.994;4.448;2024-02-26T10:12:01;4.71;;;4.71;;
71290;SDS011;59073;51.994;4.448;2024-02-26T10:14:26;5.20;;;5.20;;
71290;SDS011;59073;51.994;4.448;2024-02-26T10:16:52;5.03;;;5.03;;
71290;SDS011;59073;51.994;4.448;2024-02-26T10:19:24;5.03;;;5.03;;
71290;SDS011;59073;51.994;4.448;2024-02-26T10:21:57;5.22;;;5.22;;
71290;SDS011;59073;51.994;4.448;2024-02-26T10:24:24;4.68;;;4.67;;
71290;SDS011;59073;51.994;4.448;2024-02-26T10:26:50;5.30;;;5.21;;
71290;SDS011;59073;51.994;4.448;2024-02-26T10:29:20;5.26;;;5.16;;
71290;SDS011;59073;51.994;4.448;2024-02-26T10:31:46;5.02;;;4.96;;
71290;SDS011;59073;51.994;4.448;2024-02-26T10:34:14;4.91;;;4.91;;
71290;SDS011;59073;51.994;4.448;2024-02-26T10:36:40;4.91;;;4.89;;
71290;SDS011;59073;51.994;4.448;2024-02-26T10:39:07;5.02;;;5.00;;
71290;SDS011;59073;51.994;4.448;2024-02-26T10:41:33;5.11;;;5.09;;
71290;SDS011;59073;51.994;4.448;2024-02-26T10:43:59;5.06;;;5.04;;
71290;SDS011;59073;51.994;4.448;2024-02-26T10:46:27;5.23;;;5.22;;
71290;SDS011;59073;51.994;4.448;2024-02-26T10:48:53;5.24;;;5.22;;
71290;SDS011;59073;51.994;4.448;2024-02-26T10:51:29;5.66;;;5.61;;
71290;SDS011;59073;51.994;4.448;2024-02-26T10:53:56;5.38;;;5.31;;
71290;SDS011;59073;51.994;4.448;2024-02-26T10:56:27;5.61;;;5.59;;
71290;SDS011;59073;51.994;4.448;2024-02-26T10:58:57;5.52;;;5.52;;
71290;SDS011;59073;51.994;4.448;2024-02-26T11:01:24;5.44;;;5.44;;
71290;SDS011;59073;51.994;4.448;2024-02-26T11:03:54;5.27;;;5.27;;
71290;SDS011;59073;51.994;4.448;2024-02-26T11:06:21;5.03;;;4.98;;
71290;SDS011;59073;51.994;4.448;2024-02-26T11:08:50;5.63;;;5.51;;
71290;SDS011;59073;51.994;4.448;2024-02-26T11:11:17;5.29;;;5.29;;
71290;SDS011;59073;51.994;4.448;2024-02-26T11:13:45;5.22;;;5.22;;
71290;SDS011;59073;51.994;4.448;2024-02-26T11:16:19;5.27;;;5.27;;
71290;SDS011;59073;51.994;4.448;2024-02-26T11:18:47;4.86;;;4.86;;
71290;SDS011;59073;51.994;4.448;2024-02-26T11:21:16;4.69;;;4.69;;
71290;SDS011;59073;51.994;4.448;2024-02-26T11:24:06;4.63;;;4.61;;
71290;SDS011;59073;51.994;4.448;2024-02-26T11:26:36;5.14;;;5.06;;
71290;SDS011;59073;51.994;4.448;2024-02-26T11:29:14;5.40;;;5.33;;
71290;SDS011;59073;51.994;4.448;2024-02-26T11:31:47;5.44;;;5.38;;
71290;SDS011;59073;51.994;4.448;2024-02-26T11:34:14;5.25;;;5.25;;
71290;SDS011;59073;51.994;4.448;2024-02-26T11:36:39;5.37;;;5.34;;
71290;SDS011;59073;51.994;4.448;2024-02-26T11:39:06;5.35;;;5.33;;
71290;SDS011;59073;51.994;4.448;2024-02-26T11:41:33;5.04;;;5.01;;
71290;SDS011;59073;51.994;4.448;2024-02-26T11:44:02;5.12;;;5.12;;
71290;SDS011;59073;51.994;4.448;2024-02-26T11:46:33;4.68;;;4.68;;
71290;SDS011;59073;51.994;4.448;2024-02-26T11:49:30;5.02;;;4.98;;
71290;SDS011;59073;51.994;4.448;2024-02-26T11:51:56;5.19;;;5.05;;
71290;SDS011;59073;51.994;4.448;2024-02-26T11:54:38;4.91;;;4.84;;
71290;SDS011;59073;51.994;4.448;2024-02-26T12:02:39;4.49;;;4.49;;
71290;SDS011;59073;51.994;4.448;2024-02-26T12:05:09;4.16;;;4.16;;
71290;SDS011;59073;51.994;4.448;2024-02-26T12:07:39;4.40;;;4.40;;
71290;SDS011;59073;51.994;4.448;2024-02-26T12:10:15;4.58;;;4.58;;
71290;SDS011;59073;51.994;4.448;2024-02-26T12:12:47;4.20;;;4.20;;
71290;SDS011;59073;51.994;4.448;2024-02-26T12:15:12;4.33;;;4.33;;
71290;SDS011;59073;51.994;4.448;2024-02-26T12:17:40;4.03;;;4.02;;
71290;SDS011;59073;51.994;4.448;2024-02-26T12:20:12;3.75;;;3.73;;
71290;SDS011;59073;51.994;4.448;2024-02-26T12:22:39;3.94;;;3.92;;
71290;SDS011;59073;51.994;4.448;2024-02-26T12:25:05;3.53;;;3.52;;
71290;SDS011;59073;51.994;4.448;2024-02-26T12:27:34;3.72;;;3.72;;
71290;SDS011;59073;51.994;4.448;2024-02-26T12:30:00;3.55;;;3.55;;
71290;SDS011;59073;51.994;4.448;2024-02-26T12:32:26;3.68;;;3.68;;
71290;SDS011;59073;51.994;4.448;2024-02-26T12:34:52;4.06;;;4.06;;
71290;SDS011;59073;51.994;4.448;2024-02-26T12:37:17;3.12;;;3.12;;
71290;SDS011;59073;51.994;4.448;2024-02-26T12:39:43;3.60;;;3.60;;
71290;SDS011;59073;51.994;4.448;2024-02-26T12:42:08;3.47;;;3.47;;
71290;SDS011;59073;51.994;4.448;2024-02-26T12:44:34;3.52;;;3.52;;
71290;SDS011;59073;51.994;4.448;2024-02-26T12:47:04;3.66;;;3.66;;
71290;SDS011;59073;51.994;4.448;2024-02-26T12:49:30;3.34;;;3.34;;
71290;SDS011;59073;51.994;4.448;2024-02-26T12:51:56;3.22;;;3.22;;
71290;SDS011;59073;51.994;4.448;2024-02-26T12:54:28;3.37;;;3.37;;
71290;SDS011;59073;51.994;4.448;2024-02-26T12:56:56;3.28;;;3.28;;
71290;SDS011;59073;51.994;4.448;2024-02-26T12:59:24;3.55;;;3.54;;
71290;SDS011;59073;51.994;4.448;2024-02-26T13:01:50;3.48;;;3.46;;
71290;SDS011;59073;51.994;4.448;2024-02-26T13:04:16;3.30;;;3.27;;
71290;SDS011;59073;51.994;4.448;2024-02-26T13:06:42;3.13;;;3.13;;
71290;SDS011;59073;51.994;4.448;2024-02-26T13:09:08;3.09;;;3.09;;
71290;SDS011;59073;51.994;4.448;2024-02-26T13:11:39;2.97;;;2.97;;
71290;SDS011;59073;51.994;4.448;2024-02-26T13:14:05;3.25;;;3.25;;
71290;SDS011;59073;51.994;4.448;2024-02-26T13:16:31;2.90;;;2.89;;
71290;SDS011;59073;51.994;4.448;2024-02-26T13:19:19;2.59;;;2.57;;
71290;SDS011;59073;51.994;4.448;2024-02-26T13:21:44;3.16;;;3.13;;
71290;SDS011;59073;51.994;4.448;2024-02-26T13:24:12;2.83;;;2.80;;
71290;SDS011;59073;51.994;4.448;2024-02-26T13:26:38;3.02;;;3.00;;
71290;SDS011;59073;51.994;4.448;2024-02-26T13:29:03;2.87;;;2.85;;
71290;SDS011;59073;51.994;4.448;2024-02-26T13:31:29;3.12;;;3.08;;
71290;SDS011;59073;51.994;4.448;2024-02-26T13:33:55;2.94;;;2.92;;
71290;SDS011;59073;51.994;4.448;2024-02-26T13:36:24;2.89;;;2.89;;
71290;SDS011;59073;51.994;4.448;2024-02-26T13:38:51;2.87;;;2.87;;
71290;SDS011;59073;51.994;4.448;2024-02-26T13:41:18;3.05;;;3.05;;
71290;SDS011;59073;51.994;4.448;2024-02-26T13:43:43;2.95;;;2.95;;
71290;SDS011;59073;51.994;4.448;2024-02-26T13:46:09;2.69;;;2.69;;
71290;SDS011;59073;51.994;4.448;2024-02-26T13:48:37;2.84;;;2.82;;
71290;SDS011;59073;51.994;4.448;2024-02-26T13:51:03;3.23;;;3.22;;
71290;SDS011;59073;51.994;4.448;2024-02-26T13:53:29;3.17;;;3.17;;
71290;SDS011;59073;51.994;4.448;2024-02-26T13:55:54;2.99;;;2.99;;
71290;SDS011;59073;51.994;4.448;2024-02-26T13:58:21;2.89;;;2.89;;
71290;SDS011;59073;51.994;4.448;2024-02-26T14:00:48;2.73;;;2.73;;
71290;SDS011;59073;51.994;4.448;2024-02-26T14:03:14;2.74;;;2.74;;
71290;SDS011;59073;51.994;4.448;2024-02-26T14:05:41;2.68;;;2.68;;
71290;SDS011;59073;51.994;4.448;2024-02-26T14:08:07;2.79;;;2.79;;
71290;SDS011;59073;51.994;4.448;2024-02-26T14:10:32;2.67;;;2.67;;
71290;SDS011;59073;51.994;4.448;2024-02-26T14:12:58;2.68;;;2.68;;
71290;SDS011;59073;51.994;4.448;2024-02-26T14:15:24;2.46;;;2.46;;
71290;SDS011;59073;51.994;4.448;2024-02-26T14:17:51;2.46;;;2.46;;
71290;SDS011;59073;51.994;4.448;2024-02-26T14:20:21;2.64;;;2.64;;
71290;SDS011;59073;51.994;4.448;2024-02-26T14:22:48;2.80;;;2.80;;
71290;SDS011;59073;51.994;4.448;2024-02-26T14:25:19;2.37;;;2.37;;
71290;SDS011;59073;51.994;4.448;2024-02-26T14:27:46;2.40;;;2.40;;
71290;SDS011;59073;51.994;4.448;2024-02-26T14:30:12;2.32;;;2.32;;
71290;SDS011;59073;51.994;4.448;2024-02-26T14:32:38;2.52;;;2.52;;
71290;SDS011;59073;51.994;4.448;2024-02-26T14:35:05;2.68;;;2.68;;
71290;SDS011;59073;51.994;4.448;2024-02-26T14:37:31;2.72;;;2.72;;
71290;SDS011;59073;51.994;4.448;2024-02-26T14:39:57;2.58;;;2.58;;
71290;SDS011;59073;51.994;4.448;2024-02-26T14:42:22;2.32;;;2.32;;
71290;SDS011;59073;51.994;4.448;2024-02-26T14:44:49;2.72;;;2.72;;